createdAt,value
2022-12-29T00:00:18.687Z,99537.23
2022-12-29T00:03:07.420Z,99529.95
2022-12-29T00:05:36.075Z,99529.23
2022-12-29T00:08:04.885Z,99527.64
2022-12-29T00:10:34.192Z,99526.27
2022-12-29T00:13:21.351Z,99520.63
2022-12-29T00:15:49.959Z,99515.08
2022-12-29T00:18:19.649Z,99514.06
2022-12-29T00:21:06.693Z,99507.70
2022-12-29T00:23:56.269Z,99510.47
2022-12-29T00:26:43.209Z,99502.90
2022-12-29T00:29:30.308Z,99501.47
2022-12-29T00:32:17.713Z,99500.30
2022-12-29T00:35:05.733Z,99500.55
2022-12-29T00:37:53.393Z,99496.83
2022-12-29T00:40:40.439Z,99494.32
2022-12-29T00:43:27.634Z,99496.89
2022-12-29T00:45:56.516Z,99493.77
2022-12-29T00:48:43.821Z,99494.60
2022-12-29T00:51:12.361Z,99493.66
2022-12-29T00:53:41.291Z,99491.48
2022-12-29T00:56:09.711Z,99489.58
2022-12-29T00:58:38.280Z,99486.82
2022-12-29T01:01:08.773Z,99486.90
2022-12-29T01:03:38.455Z,99479.02
2022-12-29T01:06:09.511Z,99471.06
2022-12-29T01:08:39.154Z,99468.61
2022-12-29T01:11:10.561Z,99459.52
2022-12-29T01:13:39.959Z,99457.88
2022-12-29T01:16:08.828Z,99458.64
2022-12-29T01:18:37.328Z,99459.19
2022-12-29T01:21:07.503Z,99457.48
2022-12-29T01:23:36.154Z,99459.41
2022-12-29T01:26:15.376Z,99457.80
2022-12-29T01:28:45.037Z,99456.98
2022-12-29T01:31:15.589Z,99454.84
2022-12-29T01:33:44.927Z,99455.86
2022-12-29T01:36:16.362Z,99458.77
2022-12-29T01:38:46.168Z,99458.07
2022-12-29T01:41:16.762Z,99457.36
2022-12-29T01:43:52.240Z,99458.85
2022-12-29T01:46:37.519Z,99457.59
2022-12-29T01:49:09.202Z,99455.86
2022-12-29T01:51:54.857Z,99451.89
2022-12-29T01:54:35.999Z,99452.39
2022-12-29T01:57:09.522Z,99448.29
2022-12-29T01:59:44.055Z,99443.45
2022-12-29T02:02:13.314Z,99439.33
2022-12-29T02:04:47.281Z,99434.72
2022-12-29T02:07:22.665Z,99437.38
2022-12-29T02:09:52.914Z,99441.40
2022-12-29T02:12:23.727Z,99440.34
2022-12-29T02:14:59.920Z,99439.01
2022-12-29T02:17:46.058Z,99434.11
2022-12-29T02:20:28.074Z,99431.98
2022-12-29T02:22:59.613Z,99427.25
2022-12-29T02:25:46.855Z,99433.02
2022-12-29T02:28:34.877Z,99428.76
2022-12-29T02:31:41.995Z,99425.05
2022-12-29T02:34:38.536Z,99418.00
2022-12-29T02:37:17.215Z,99413.38
2022-12-29T02:40:24.045Z,99411.77
2022-12-29T02:42:52.611Z,99405.73
2022-12-29T02:45:40.112Z,99413.46
2022-12-29T02:48:27.230Z,99411.52
2022-12-29T02:51:10.608Z,99414.37
2022-12-29T02:53:59.225Z,99412.31
2022-12-29T02:56:28.354Z,99410.95
2022-12-29T02:58:57.750Z,99408.77
2022-12-29T03:02:05.205Z,99408.29
2022-12-29T03:04:37.115Z,99409.58
2022-12-29T03:07:29.054Z,99410.16
2022-12-29T03:10:06.106Z,99405.97
2022-12-29T03:13:06.182Z,99397.56
2022-12-29T03:16:06.549Z,99391.36
2022-12-29T03:18:51.639Z,99382.52
2022-12-29T03:21:50.712Z,99378.15
2022-12-29T03:24:23.645Z,99374.23
2022-12-29T03:26:56.132Z,99377.40
2022-12-29T03:29:26.604Z,99385.20
2022-12-29T03:31:57.517Z,99392.62
2022-12-29T03:34:27.618Z,99383.85
2022-12-29T03:37:07.131Z,99382.73
2022-12-29T03:39:36.344Z,99375.33
2022-12-29T03:42:11.222Z,99374.77
2022-12-29T03:44:42.737Z,99371.60
2022-12-29T03:47:13.232Z,99367.14
2022-12-29T03:49:42.337Z,99369.11
2022-12-29T03:52:11.027Z,99367.30
2022-12-29T03:54:43.321Z,99366.27
2022-12-29T03:57:12.826Z,99364.55
2022-12-29T03:59:51.810Z,99361.80
2022-12-29T04:02:20.482Z,99359.71
2022-12-29T04:04:49.334Z,99362.05
2022-12-29T04:07:17.908Z,99358.79
2022-12-29T04:09:46.925Z,99350.24
2022-12-29T04:12:21.040Z,99348.26
2022-12-29T04:14:49.606Z,99345.73
2022-12-29T04:17:18.051Z,99346.27
2022-12-29T04:19:48.434Z,99343.57
2022-12-29T04:22:17.425Z,99347.05
2022-12-29T04:24:47.299Z,99345.43
2022-12-29T04:27:16.107Z,99346.46
2022-12-29T04:30:06.347Z,99345.27
2022-12-29T04:32:47.976Z,99344.63
2022-12-29T04:35:16.757Z,99343.85
2022-12-29T04:37:47.128Z,99342.02
2022-12-29T04:40:15.665Z,99334.80
2022-12-29T04:42:44.246Z,99330.26
2022-12-29T04:45:16.569Z,99332.01
2022-12-29T04:48:08.249Z,99327.29
2022-12-29T04:50:55.172Z,99329.63
2022-12-29T04:53:26.971Z,99316.37
2022-12-29T04:55:56.196Z,99316.70
2022-12-29T04:58:24.923Z,99314.74
2022-12-29T05:00:54.482Z,99313.66
2022-12-29T05:03:25.912Z,99313.58
2022-12-29T05:05:56.287Z,99310.88
2022-12-29T05:08:28.245Z,99305.32
2022-12-29T05:10:59.435Z,99302.56
2022-12-29T05:13:28.697Z,99304.86
2022-12-29T05:15:57.305Z,99309.92
2022-12-29T05:18:26.508Z,99306.55
2022-12-29T05:20:56.144Z,99301.02
2022-12-29T05:23:25.610Z,99293.34
2022-12-29T05:25:59.065Z,99292.43
2022-12-29T05:28:44.177Z,99290.86
2022-12-29T05:31:15.715Z,99286.05
2022-12-29T05:33:45.164Z,99285.52
2022-12-29T05:36:14.878Z,99283.20
2022-12-29T05:38:50.413Z,99276.66
2022-12-29T05:41:20.284Z,99276.60
2022-12-29T05:43:54.371Z,99270.34
2022-12-29T05:46:32.739Z,99274.20
2022-12-29T05:49:21.211Z,99274.15
2022-12-29T05:51:57.557Z,99276.38
2022-12-29T05:54:26.130Z,99270.20
2022-12-29T05:56:54.808Z,99268.96
2022-12-29T05:59:24.220Z,99266.75
2022-12-29T06:01:54.374Z,99263.69
2022-12-29T06:19:53.301Z,99229.75
2022-12-29T06:22:22.502Z,99227.73
2022-12-29T06:24:51.121Z,99227.17
2022-12-29T06:27:19.779Z,99227.78
2022-12-29T06:29:50.971Z,99227.19
2022-12-29T06:32:19.657Z,99230.46
2022-12-29T06:34:52.559Z,99231.94
2022-12-29T06:37:21.161Z,99237.10
2022-12-29T06:39:49.773Z,99234.05
2022-12-29T06:42:18.552Z,99228.58
2022-12-29T06:44:54.370Z,99230.23
2022-12-29T06:47:23.146Z,99226.19
2022-12-29T06:49:51.816Z,99229.27
2022-12-29T06:52:20.444Z,99231.95
2022-12-29T06:54:49.145Z,99231.24
2022-12-29T06:57:17.730Z,99230.51
2022-12-29T06:59:46.592Z,99228.02
2022-12-29T07:02:16.080Z,99226.59
2022-12-29T07:04:45.110Z,99225.60
2022-12-29T07:07:13.624Z,99220.90
2022-12-29T07:09:42.983Z,99222.04
2022-12-29T07:12:11.456Z,99221.59
2022-12-29T07:14:43.202Z,99224.41
2022-12-29T07:17:12.318Z,99228.02
2022-12-29T07:19:40.916Z,99228.98
2022-12-29T07:22:10.700Z,99238.36
2022-12-29T07:24:39.304Z,99239.05
2022-12-29T07:27:07.833Z,99234.37
2022-12-29T07:29:39.320Z,99233.11
2022-12-29T07:32:08.038Z,99236.88
2022-12-29T07:34:36.688Z,99242.05
2022-12-29T07:37:05.214Z,99240.60
2022-12-29T07:39:33.864Z,99238.35
2022-12-29T07:42:05.050Z,99233.11
2022-12-29T07:44:41.478Z,99225.71
2022-12-29T07:47:35.428Z,99208.60
2022-12-29T07:50:04.651Z,99218.10
2022-12-29T07:52:33.265Z,99225.53
2022-12-29T07:55:01.711Z,99225.42
2022-12-29T07:57:32.359Z,99226.77
2022-12-29T08:00:01.256Z,99232.13
2022-12-29T08:02:30.848Z,99234.12
2022-12-29T08:04:59.552Z,99240.50
2022-12-29T08:07:28.188Z,99247.29
2022-12-29T08:09:57.264Z,99249.59
2022-12-29T08:12:25.849Z,99246.61
2022-12-29T08:14:54.335Z,99246.77
2022-12-29T08:17:22.826Z,99249.69
2022-12-29T08:19:51.284Z,99245.56
2022-12-29T08:22:19.842Z,99251.20
2022-12-29T08:24:49.244Z,99251.64
2022-12-29T08:27:21.009Z,99258.53
2022-12-29T08:29:49.964Z,99256.31
2022-12-29T08:32:19.312Z,99251.40
